createdAt,value
2023-04-18T00:00:46.441Z,1008.28
2023-04-18T00:01:46.481Z,1008.25
2023-04-18T00:02:46.537Z,1008.28
2023-04-18T00:03:46.629Z,1008.28
2023-04-18T00:04:46.551Z,1008.25
2023-04-18T00:05:46.356Z,1008.23
2023-04-18T00:06:46.347Z,1008.25
2023-04-18T00:07:46.350Z,1008.23
2023-04-18T00:08:46.315Z,1008.28
2023-04-18T00:09:46.319Z,1008.25
2023-04-18T00:10:46.303Z,1008.26
2023-04-18T00:11:46.283Z,1008.19
2023-04-18T00:12:46.270Z,1008.26
2023-04-18T00:13:46.290Z,1008.23
2023-04-18T00:14:46.247Z,1008.23
2023-04-18T00:15:46.299Z,1008.20
2023-04-18T00:16:46.457Z,1008.20
2023-04-18T00:17:46.264Z,1008.24
2023-04-18T00:18:46.204Z,1008.19
2023-04-18T00:19:46.208Z,1008.19
2023-04-18T00:20:46.265Z,1008.23
2023-04-18T00:21:46.168Z,1008.21
2023-04-18T00:22:46.169Z,1008.21
2023-04-18T00:23:46.174Z,1008.28
2023-04-18T00:24:46.169Z,1008.23
2023-04-18T00:25:46.145Z,1008.26
2023-04-18T00:26:46.184Z,1008.24
2023-04-18T00:27:46.157Z,1008.23
2023-04-18T00:28:46.100Z,1008.25
2023-04-18T00:29:46.082Z,1008.26
2023-04-18T00:30:46.141Z,1008.24
2023-04-18T00:31:46.076Z,1008.22
2023-04-18T00:32:46.121Z,1008.20
2023-04-18T00:33:46.126Z,1008.18
2023-04-18T00:34:46.034Z,1008.21
2023-04-18T00:35:46.019Z,1008.20
2023-04-18T00:36:46.038Z,1008.16
2023-04-18T00:37:45.995Z,1008.19
2023-04-18T00:38:46.024Z,1008.19
2023-04-18T00:39:45.988Z,1008.19
2023-04-18T00:40:45.983Z,1008.21
2023-04-18T00:41:46.014Z,1008.23
2023-04-18T00:42:45.979Z,1008.19
2023-04-18T00:43:45.948Z,1008.22
2023-04-18T00:44:45.951Z,1008.21
2023-04-18T00:45:45.933Z,1008.22
2023-04-18T00:46:45.897Z,1008.22
2023-04-18T00:47:45.957Z,1008.22
2023-04-18T00:48:45.874Z,1008.21
2023-04-18T00:49:45.866Z,1008.23
2023-04-18T00:50:45.889Z,1008.23
2023-04-18T00:51:45.847Z,1008.23
2023-04-18T00:52:45.841Z,1008.17
2023-04-18T00:53:45.823Z,1008.21
2023-04-18T00:54:45.820Z,1008.21
2023-04-18T00:55:45.831Z,1008.18
2023-04-18T00:56:45.844Z,1008.18
2023-04-18T00:57:45.805Z,1008.18
2023-04-18T00:58:45.774Z,1008.16
2023-04-18T00:59:45.757Z,1008.18
2023-04-18T01:00:45.751Z,1008.23
2023-04-18T01:01:45.838Z,1008.17
2023-04-18T01:02:45.854Z,1008.18
2023-04-18T01:03:45.927Z,1008.19
2023-04-18T01:04:45.772Z,1008.22
2023-04-18T01:05:45.690Z,1008.18
2023-04-18T01:06:45.721Z,1008.17
2023-04-18T01:07:45.713Z,1008.20
2023-04-18T01:08:45.663Z,1008.15
2023-04-18T01:09:45.657Z,1008.13
2023-04-18T01:10:45.757Z,1008.14
2023-04-18T01:11:45.639Z,1008.16
2023-04-18T01:12:45.626Z,1008.12
2023-04-18T01:13:45.649Z,1008.10
2023-04-18T01:14:45.589Z,1008.16
2023-04-18T01:15:45.700Z,1008.10
2023-04-18T01:16:45.568Z,1008.10
2023-04-18T01:17:45.622Z,1008.07
2023-04-18T01:18:45.570Z,1008.09
2023-04-18T01:19:45.554Z,1008.06
2023-04-18T01:20:45.521Z,1008.04
2023-04-18T01:21:45.520Z,1008.03
2023-04-18T01:22:45.499Z,1008.03
2023-04-18T01:23:45.537Z,1008.02
2023-04-18T01:24:45.515Z,1008.00
2023-04-18T01:25:45.504Z,1007.99
2023-04-18T01:26:45.471Z,1007.97
2023-04-18T01:27:45.477Z,1007.95
2023-04-18T01:28:45.442Z,1007.98
2023-04-18T01:29:45.447Z,1007.94
2023-04-18T01:30:45.436Z,1007.95
2023-04-18T01:31:45.440Z,1007.93
2023-04-18T01:32:45.408Z,1007.99
2023-04-18T01:33:45.382Z,1007.95
2023-04-18T01:34:45.387Z,1007.96
2023-04-18T01:35:45.398Z,1007.94
2023-04-18T01:36:45.353Z,1007.95
2023-04-18T01:37:45.356Z,1007.90
2023-04-18T01:38:45.332Z,1007.89
2023-04-18T01:39:45.326Z,1007.93
2023-04-18T01:40:45.338Z,1007.91
2023-04-18T01:41:45.328Z,1007.93
2023-04-18T01:42:45.306Z,1007.90
2023-04-18T01:43:45.317Z,1007.86
2023-04-18T01:44:45.275Z,1007.90
2023-04-18T01:45:45.468Z,1007.88
2023-04-18T01:46:45.368Z,1007.89
2023-04-18T01:47:45.292Z,1007.85
2023-04-18T01:48:45.251Z,1007.88
2023-04-18T01:49:45.250Z,1007.87
2023-04-18T01:50:45.203Z,1007.86
2023-04-18T01:51:45.191Z,1007.86
2023-04-18T01:52:45.186Z,1007.90
2023-04-18T01:53:45.231Z,1007.84
2023-04-18T01:54:45.160Z,1007.86
2023-04-18T01:55:45.152Z,1007.86
2023-04-18T01:56:45.143Z,1007.91
2023-04-18T01:57:45.142Z,1007.91
2023-04-18T01:58:45.174Z,1007.92
2023-04-18T01:59:45.122Z,1007.86
2023-04-18T02:00:45.146Z,1007.86
2023-04-18T02:01:45.114Z,1007.86
2023-04-18T02:02:45.133Z,1007.88
2023-04-18T02:03:45.320Z,1007.87
2023-04-18T02:04:45.051Z,1007.88
2023-04-18T02:05:45.058Z,1007.87
2023-04-18T02:06:45.026Z,1007.85
2023-04-18T02:07:45.033Z,1007.86
2023-04-18T02:08:45.055Z,1007.87
2023-04-18T02:09:44.989Z,1007.89
2023-04-18T02:10:45.005Z,1007.91
2023-04-18T02:11:45.015Z,1007.89
2023-04-18T02:12:44.980Z,1007.88
2023-04-18T02:13:44.950Z,1007.89
2023-04-18T02:14:44.954Z,1007.89
2023-04-18T02:15:44.931Z,1007.89
2023-04-18T02:16:44.975Z,1007.92
2023-04-18T02:17:44.961Z,1007.84
2023-04-18T02:18:44.894Z,1007.88
2023-04-18T02:19:44.893Z,1007.93
2023-04-18T02:20:44.883Z,1007.90
2023-04-18T02:21:44.922Z,1007.84
2023-04-18T02:22:44.855Z,1007.84
2023-04-18T02:23:44.880Z,1007.87
2023-04-18T02:24:44.838Z,1007.87
2023-04-18T02:25:44.833Z,1007.87
2023-04-18T02:26:44.809Z,1007.85
2023-04-18T02:27:44.815Z,1007.84
2023-04-18T02:28:44.792Z,1007.87
2023-04-18T02:29:44.867Z,1007.92
2023-04-18T02:30:44.793Z,1007.83
2023-04-18T02:31:44.809Z,1007.87
2023-04-18T02:32:44.803Z,1007.83
2023-04-18T02:33:44.795Z,1007.80
2023-04-18T02:34:44.731Z,1007.80
2023-04-18T02:35:44.746Z,1007.78
2023-04-18T02:36:44.704Z,1007.79
2023-04-18T02:37:44.716Z,1007.78
2023-04-18T02:38:44.693Z,1007.80
2023-04-18T02:39:44.673Z,1007.78
2023-04-18T02:40:44.662Z,1007.78
2023-04-18T02:41:44.671Z,1007.81
2023-04-18T02:42:44.663Z,1007.76
2023-04-18T02:43:44.633Z,1007.79
2023-04-18T02:44:44.636Z,1007.81
2023-04-18T02:45:44.679Z,1007.77
2023-04-18T02:46:44.603Z,1007.79
2023-04-18T02:47:54.720Z,1007.80
2023-04-18T02:48:45.591Z,1007.82
2023-04-18T02:49:44.638Z,1007.78
2023-04-18T02:50:44.554Z,1007.79
2023-04-18T02:51:44.537Z,1007.78
2023-04-18T02:52:44.549Z,1007.80
2023-04-18T02:53:44.599Z,1007.82
2023-04-18T02:54:44.506Z,1007.83
2023-04-18T02:55:44.512Z,1007.83
2023-04-18T02:56:44.490Z,1007.82
2023-04-18T02:57:44.500Z,1007.79
2023-04-18T02:58:44.476Z,1007.82
2023-04-18T02:59:44.488Z,1007.83
2023-04-18T03:00:44.446Z,1007.79
2023-04-18T03:01:44.554Z,1007.79
2023-04-18T03:02:44.573Z,1007.83
2023-04-18T03:03:44.451Z,1007.83
2023-04-18T03:04:44.462Z,1007.82
2023-04-18T03:05:44.413Z,1007.80
2023-04-18T03:06:44.380Z,1007.78
2023-04-18T03:07:44.359Z,1007.83
2023-04-18T03:08:44.367Z,1007.86
2023-04-18T03:09:44.357Z,1007.81
2023-04-18T03:10:44.337Z,1007.82
2023-04-18T03:11:44.413Z,1007.85
2023-04-18T03:12:44.337Z,1007.86
2023-04-18T03:13:44.297Z,1007.91
2023-04-18T03:14:44.301Z,1007.90
2023-04-18T03:15:44.617Z,1007.96
2023-04-18T03:16:44.284Z,1007.94
2023-04-18T03:17:44.344Z,1007.96
2023-04-18T03:18:44.269Z,1007.95
2023-04-18T03:19:44.225Z,1007.90
2023-04-18T03:20:44.301Z,1007.93
2023-04-18T03:21:44.222Z,1007.95
2023-04-18T03:22:44.217Z,1007.94
2023-04-18T03:23:44.341Z,1007.95
2023-04-18T03:24:44.197Z,1007.91
2023-04-18T03:25:44.155Z,1007.93
2023-04-18T03:26:44.160Z,1007.93
2023-04-18T03:27:44.141Z,1007.96
2023-04-18T03:28:44.182Z,1007.93
2023-04-18T03:29:44.192Z,1007.91
2023-04-18T03:30:44.111Z,1007.91
2023-04-18T03:31:44.157Z,1007.92
2023-04-18T03:32:44.131Z,1007.92
2023-04-18T03:33:44.120Z,1007.86
2023-04-18T03:34:44.152Z,1007.92
2023-04-18T03:35:44.087Z,1007.90
2023-04-18T03:36:45.876Z,1007.85
2023-04-18T03:37:44.046Z,1007.90
2023-04-18T03:38:44.045Z,1007.87
2023-04-18T03:39:44.007Z,1007.84
2023-04-18T03:40:43.996Z,1007.87
2023-04-18T03:41:44.016Z,1007.79
2023-04-18T03:42:43.976Z,1007.83
2023-04-18T03:43:43.978Z,1007.90
2023-04-18T03:44:43.960Z,1007.84
2023-04-18T03:45:43.940Z,1007.87
2023-04-18T03:46:43.997Z,1007.93
2023-04-18T03:47:43.999Z,1007.88
2023-04-18T03:48:43.931Z,1007.82
2023-04-18T03:49:43.904Z,1007.81
2023-04-18T03:50:43.936Z,1007.88
2023-04-18T03:51:43.876Z,1007.92
2023-04-18T03:52:43.872Z,1007.91
2023-04-18T03:53:43.890Z,1007.96
2023-04-18T03:54:43.868Z,1007.92
2023-04-18T03:55:43.835Z,1007.96
2023-04-18T03:56:43.822Z,1007.94
2023-04-18T03:57:43.824Z,1007.95
2023-04-18T03:58:43.814Z,1007.95
2023-04-18T03:59:45.168Z,1007.98
2023-04-18T04:00:43.788Z,1007.96
2023-04-18T04:01:43.794Z,1007.96
2023-04-18T04:02:43.865Z,1007.96
2023-04-18T04:03:43.882Z,1007.95
2023-04-18T04:04:43.828Z,1007.99
2023-04-18T04:05:43.749Z,1007.97
2023-04-18T04:06:43.748Z,1007.96
2023-04-18T04:07:43.704Z,1008.01
2023-04-18T04:08:43.714Z,1008.02
2023-04-18T04:09:43.699Z,1008.03
2023-04-18T04:10:43.696Z,1008.01
2023-04-18T04:11:43.666Z,1008.02
2023-04-18T04:12:43.698Z,1008.04
2023-04-18T04:13:43.663Z,1008.05
2023-04-18T04:14:43.625Z,1008.03
2023-04-18T04:15:43.625Z,1008.06
2023-04-18T04:16:43.670Z,1008.11
2023-04-18T04:17:43.647Z,1008.07
2023-04-18T04:18:43.630Z,1008.07
2023-04-18T04:19:43.584Z,1008.10
2023-04-18T04:20:43.593Z,1008.14
2023-04-18T04:21:43.601Z,1008.12
2023-04-18T04:22:43.570Z,1008.11
2023-04-18T04:23:43.570Z,1008.15
2023-04-18T04:24:43.642Z,1008.21
2023-04-18T04:25:43.587Z,1008.20
2023-04-18T04:26:43.504Z,1008.17
2023-04-18T04:27:43.486Z,1008.18
2023-04-18T04:28:43.494Z,1008.14
2023-04-18T04:29:43.467Z,1008.22
2023-04-18T04:30:43.495Z,1008.13
2023-04-18T04:31:43.467Z,1008.23
2023-04-18T04:32:43.489Z,1008.12
2023-04-18T04:33:43.417Z,1008.19
2023-04-18T04:34:43.428Z,1008.16
2023-04-18T04:35:43.426Z,1008.15
2023-04-18T04:36:43.433Z,1008.19
2023-04-18T04:37:43.394Z,1008.21
2023-04-18T04:38:43.368Z,1008.21
2023-04-18T04:39:43.366Z,1008.23
2023-04-18T04:40:43.350Z,1008.28
2023-04-18T04:41:43.373Z,1008.29
2023-04-18T04:42:43.358Z,1008.31
2023-04-18T04:43:43.330Z,1008.31
2023-04-18T04:44:43.388Z,1008.29
2023-04-18T04:45:43.362Z,1008.31
2023-04-18T04:46:43.281Z,1008.29
2023-04-18T04:47:43.321Z,1008.33
2023-04-18T04:48:43.343Z,1008.34
2023-04-18T04:49:43.264Z,1008.33
2023-04-18T04:50:43.249Z,1008.37
2023-04-18T04:51:43.228Z,1008.40
2023-04-18T04:52:43.228Z,1008.41
2023-04-18T04:53:43.198Z,1008.38
2023-04-18T04:54:43.396Z,1008.36
2023-04-18T04:55:43.200Z,1008.37
2023-04-18T04:56:43.185Z,1008.43
2023-04-18T04:57:43.219Z,1008.41
2023-04-18T04:58:43.146Z,1008.39
2023-04-18T04:59:43.143Z,1008.37
2023-04-18T05:00:43.164Z,1008.41
2023-04-18T05:01:43.127Z,1008.42
2023-04-18T05:02:43.276Z,1008.49
2023-04-18T05:03:43.402Z,1008.41
2023-04-18T05:04:43.186Z,1008.43
2023-04-18T05:05:43.067Z,1008.46
2023-04-18T05:06:43.110Z,1008.53
2023-04-18T05:07:43.046Z,1008.50
2023-04-18T05:08:43.030Z,1008.50
2023-04-18T05:09:43.027Z,1008.51
2023-04-18T05:10:43.018Z,1008.50
2023-04-18T05:11:43.016Z,1008.51
2023-04-18T05:12:43.030Z,1008.53
2023-04-18T05:13:43.017Z,1008.55
2023-04-18T05:14:42.977Z,1008.52
2023-04-18T05:15:43.005Z,1008.58
2023-04-18T05:16:43.014Z,1008.55
2023-04-18T05:17:42.999Z,1008.56
2023-04-18T05:18:42.964Z,1008.50
2023-04-18T05:19:42.918Z,1008.51
2023-04-18T05:20:42.914Z,1008.56
2023-04-18T05:21:42.927Z,1008.55
2023-04-18T05:22:42.896Z,1008.56
2023-04-18T05:23:42.913Z,1008.57
2023-04-18T05:24:50.430Z,1008.58
2023-04-18T05:25:42.909Z,1008.62
2023-04-18T05:26:42.838Z,1008.57
2023-04-18T05:27:42.859Z,1008.55
2023-04-18T05:28:42.844Z,1008.70
2023-04-18T05:29:42.828Z,1008.67
2023-04-18T05:30:42.894Z,1008.64
2023-04-18T05:31:42.799Z,1008.66
2023-04-18T05:32:42.815Z,1008.68
2023-04-18T05:33:42.803Z,1008.67
2023-04-18T05:34:42.754Z,1008.69
2023-04-18T05:35:42.752Z,1008.69
2023-04-18T05:36:42.732Z,1008.66
2023-04-18T05:37:42.747Z,1008.72
2023-04-18T05:38:42.712Z,1008.75
2023-04-18T05:39:42.729Z,1008.71
2023-04-18T05:40:42.699Z,1008.73
2023-04-18T05:41:42.707Z,1008.73
2023-04-18T05:42:42.687Z,1008.72
2023-04-18T05:43:44.470Z,1008.71
2023-04-18T05:44:43.737Z,1008.71
2023-04-18T05:45:42.757Z,1008.70
2023-04-18T05:46:42.770Z,1008.76
2023-04-18T05:47:42.658Z,1008.72
2023-04-18T05:48:42.607Z,1008.71
2023-04-18T05:49:42.621Z,1008.73
2023-04-18T05:50:42.604Z,1008.72
2023-04-18T05:51:42.576Z,1008.75
2023-04-18T05:52:42.584Z,1008.75
2023-04-18T05:53:42.559Z,1008.74
2023-04-18T05:54:42.566Z,1008.78
2023-04-18T05:55:42.542Z,1008.76
2023-04-18T05:56:42.563Z,1008.77
2023-04-18T05:57:42.516Z,1008.75
2023-04-18T05:58:42.531Z,1008.77
2023-04-18T05:59:42.523Z,1008.77
2023-04-18T06:00:42.481Z,1008.73
2023-04-18T06:01:42.538Z,1008.76
2023-04-18T06:02:42.580Z,1008.76
2023-04-18T06:03:42.722Z,1008.71
2023-04-18T06:04:42.781Z,1008.73
2023-04-18T06:05:42.450Z,1008.77
2023-04-18T06:06:42.410Z,1008.71
2023-04-18T06:07:42.421Z,1008.70
2023-04-18T06:08:42.410Z,1008.77
2023-04-18T06:09:42.395Z,1008.72
2023-04-18T06:10:42.360Z,1008.73
2023-04-18T06:11:42.382Z,1008.78
2023-04-18T06:12:42.345Z,1008.82
2023-04-18T06:13:42.354Z,1008.85
2023-04-18T06:14:42.323Z,1008.83
2023-04-18T06:15:42.326Z,1008.80
2023-04-18T06:16:42.330Z,1008.86
2023-04-18T06:17:42.391Z,1008.83
2023-04-18T06:18:42.288Z,1008.84
2023-04-18T06:19:42.308Z,1008.89
2023-04-18T06:20:42.273Z,1008.89
2023-04-18T06:21:42.268Z,1008.92
2023-04-18T06:22:42.238Z,1008.86
2023-04-18T06:23:42.299Z,1008.87
2023-04-18T06:24:42.213Z,1008.94
2023-04-18T06:25:42.225Z,1008.89
2023-04-18T06:26:42.194Z,1008.89
2023-04-18T06:27:43.019Z,1008.87
2023-04-18T06:28:42.178Z,1008.85
2023-04-18T06:29:42.212Z,1008.82
2023-04-18T06:30:42.165Z,1008.85
2023-04-18T06:31:42.405Z,1008.88
2023-04-18T06:32:42.185Z,1008.89
2023-04-18T06:33:42.147Z,1008.93
2023-04-18T06:34:42.110Z,1008.89
2023-04-18T06:35:42.117Z,1008.95
2023-04-18T06:36:42.081Z,1008.91
2023-04-18T06:37:42.079Z,1008.93
2023-04-18T06:38:42.074Z,1008.99
2023-04-18T06:39:42.047Z,1008.89
2023-04-18T06:40:42.037Z,1008.94
2023-04-18T06:41:42.027Z,1008.87
2023-04-18T06:42:42.050Z,1008.94
2023-04-18T06:43:49.300Z,1008.88
2023-04-18T06:44:43.040Z,1008.90
2023-04-18T06:45:42.029Z,1008.94
2023-04-18T06:46:41.970Z,1008.91
2023-04-18T06:47:41.994Z,1008.88
2023-04-18T06:48:41.965Z,1008.92
2023-04-18T06:49:41.969Z,1008.95
2023-04-18T06:50:41.963Z,1008.95
2023-04-18T06:51:41.919Z,1008.94
2023-04-18T06:52:41.903Z,1008.98
2023-04-18T06:53:41.903Z,1008.96
2023-04-18T06:54:41.905Z,1009.00
2023-04-18T06:55:41.898Z,1008.92
2023-04-18T06:56:41.865Z,1008.90
2023-04-18T06:57:41.859Z,1008.92
2023-04-18T06:58:41.859Z,1008.94
2023-04-18T06:59:41.848Z,1008.92
2023-04-18T07:00:41.940Z,1008.98
2023-04-18T07:01:42.483Z,1008.98
2023-04-18T07:02:41.874Z,1008.99
2023-04-18T07:03:41.854Z,1009.01
2023-04-18T07:04:41.971Z,1009.02
2023-04-18T07:05:41.869Z,1009.00
2023-04-18T07:06:41.749Z,1008.97
2023-04-18T07:07:41.783Z,1008.99
2023-04-18T07:08:41.728Z,1009.03
2023-04-18T07:09:41.724Z,1009.06
2023-04-18T07:10:41.750Z,1009.07
2023-04-18T07:11:41.697Z,1009.03
2023-04-18T07:12:41.699Z,1009.05
2023-04-18T07:13:41.678Z,1009.12
2023-04-18T07:14:41.675Z,1009.11
2023-04-18T07:15:41.680Z,1009.07
2023-04-18T07:16:41.706Z,1009.07
2023-04-18T07:17:41.701Z,1009.12
2023-04-18T07:18:41.622Z,1009.06
2023-04-18T07:19:41.619Z,1009.12
2023-04-18T07:20:41.612Z,1009.09
2023-04-18T07:21:41.602Z,1009.17
2023-04-18T07:22:41.578Z,1009.14
2023-04-18T07:23:41.600Z,1009.13
2023-04-18T07:24:41.567Z,1009.16
2023-04-18T07:25:41.546Z,1009.16
2023-04-18T07:26:41.544Z,1009.17
2023-04-18T07:27:41.522Z,1009.17
2023-04-18T07:28:41.529Z,1009.15
2023-04-18T07:29:41.596Z,1009.20
2023-04-18T07:30:41.522Z,1009.16
2023-04-18T07:31:41.500Z,1009.18
2023-04-18T07:32:41.509Z,1009.15
2023-04-18T07:33:41.464Z,1009.13
2023-04-18T07:34:41.439Z,1009.14
2023-04-18T07:35:41.558Z,1009.13
2023-04-18T07:36:41.437Z,1009.13
2023-04-18T07:37:41.679Z,1009.15
2023-04-18T07:38:41.443Z,1009.11
2023-04-18T07:39:41.392Z,1009.11
2023-04-18T07:40:41.386Z,1009.15
2023-04-18T07:41:41.372Z,1009.15
2023-04-18T07:42:41.388Z,1009.17
2023-04-18T07:43:41.351Z,1009.12
2023-04-18T07:44:41.357Z,1009.16
2023-04-18T07:45:41.326Z,1009.12
2023-04-18T07:46:41.437Z,1009.16
2023-04-18T07:47:41.330Z,1009.23
2023-04-18T07:48:41.327Z,1009.18
2023-04-18T07:49:41.302Z,1009.20
2023-04-18T07:50:41.290Z,1009.24
2023-04-18T07:51:41.256Z,1009.21
2023-04-18T07:52:41.267Z,1009.19
2023-04-18T07:53:41.437Z,1009.30
2023-04-18T07:54:41.255Z,1009.23
2023-04-18T07:55:41.237Z,1009.23
2023-04-18T07:56:41.218Z,1009.18
2023-04-18T07:57:41.190Z,1009.21
2023-04-18T07:58:41.211Z,1009.22
2023-04-18T07:59:41.184Z,1009.21
2023-04-18T08:00:41.292Z,1009.25
2023-04-18T08:01:41.150Z,1009.21
2023-04-18T08:02:41.440Z,1009.24
2023-04-18T08:03:41.271Z,1009.18
2023-04-18T08:04:41.296Z,1009.24
2023-04-18T08:05:42.326Z,1009.24
2023-04-18T08:06:41.087Z,1009.26
2023-04-18T08:07:41.085Z,1009.25
2023-04-18T08:08:41.064Z,1009.25
2023-04-18T08:09:41.099Z,1009.26
2023-04-18T08:10:41.051Z,1009.23
2023-04-18T08:11:41.046Z,1009.27
2023-04-18T08:12:41.040Z,1009.33
2023-04-18T08:13:41.016Z,1009.34
2023-04-18T08:14:41.023Z,1009.38
2023-04-18T08:15:41.004Z,1009.36
2023-04-18T08:16:41.031Z,1009.37
2023-04-18T08:17:40.994Z,1009.36
2023-04-18T08:18:40.962Z,1009.35
2023-04-18T08:19:40.964Z,1009.35
2023-04-18T08:20:40.944Z,1009.36
2023-04-18T08:21:40.954Z,1009.32
2023-04-18T08:22:57.146Z,1009.32
2023-04-18T08:23:41.905Z,1009.33
2023-04-18T08:24:42.919Z,1009.33
2023-04-18T08:25:41.957Z,1009.37
2023-04-18T08:26:40.870Z,1009.37
2023-04-18T08:27:40.882Z,1009.37
2023-04-18T08:28:40.852Z,1009.47
2023-04-18T08:29:40.842Z,1009.45
2023-04-18T08:30:40.842Z,1009.43
2023-04-18T08:31:40.916Z,1009.41
2023-04-18T08:32:40.846Z,1009.40
2023-04-18T08:33:40.814Z,1009.41
2023-04-18T08:34:40.798Z,1009.41
2023-04-18T08:35:40.790Z,1009.43
2023-04-18T08:36:40.776Z,1009.48
2023-04-18T08:37:40.760Z,1009.44
2023-04-18T08:38:40.743Z,1009.49
2023-04-18T08:39:40.776Z,1009.45
2023-04-18T08:40:40.726Z,1009.44
2023-04-18T08:41:41.440Z,1009.46
2023-04-18T08:42:41.480Z,1009.43
2023-04-18T08:43:40.687Z,1009.40
2023-04-18T08:44:40.695Z,1009.40
2023-04-18T08:45:40.706Z,1009.41
2023-04-18T08:46:40.656Z,1009.38
2023-04-18T08:47:40.678Z,1009.41
2023-04-18T08:48:40.649Z,1009.45
2023-04-18T08:49:40.611Z,1009.48
2023-04-18T08:50:40.635Z,1009.53
2023-04-18T08:51:40.608Z,1009.46
2023-04-18T08:52:41.508Z,1009.50
2023-04-18T08:53:40.587Z,1009.50
2023-04-18T08:54:40.615Z,1009.55
2023-04-18T08:55:40.647Z,1009.54
2023-04-18T08:56:40.544Z,1009.47
2023-04-18T08:57:40.571Z,1009.48
2023-04-18T08:58:40.531Z,1009.46
2023-04-18T08:59:40.520Z,1009.42
2023-04-18T09:00:40.499Z,1009.43
2023-04-18T09:01:40.566Z,1009.47
2023-04-18T09:02:40.647Z,1009.43
2023-04-18T09:03:40.534Z,1009.44
2023-04-18T09:04:40.462Z,1009.42
2023-04-18T09:05:40.441Z,1009.41
2023-04-18T09:06:40.429Z,1009.38
2023-04-18T09:07:40.413Z,1009.41
2023-04-18T09:08:40.426Z,1009.39
2023-04-18T09:09:40.409Z,1009.40
2023-04-18T09:10:40.387Z,1009.37
2023-04-18T09:11:40.372Z,1009.38
2023-04-18T09:12:40.370Z,1009.40
2023-04-18T09:13:40.368Z,1009.40
2023-04-18T09:14:40.367Z,1009.39
2023-04-18T09:15:40.348Z,1009.37
2023-04-18T09:16:40.385Z,1009.39
2023-04-18T09:17:40.320Z,1009.36
2023-04-18T09:18:40.300Z,1009.35
2023-04-18T09:19:40.285Z,1009.37
2023-04-18T09:20:40.309Z,1009.41
2023-04-18T09:21:40.308Z,1009.45
2023-04-18T09:22:40.256Z,1009.41
2023-04-18T09:23:40.246Z,1009.45
2023-04-18T09:24:40.240Z,1009.43
2023-04-18T09:25:42.124Z,1009.44
2023-04-18T09:26:40.209Z,1009.39
2023-04-18T09:27:40.232Z,1009.41
2023-04-18T09:28:40.187Z,1009.41
2023-04-18T09:29:40.279Z,1009.40
2023-04-18T09:30:40.284Z,1009.44
2023-04-18T09:31:40.159Z,1009.37
2023-04-18T09:32:40.183Z,1009.37
2023-04-18T09:33:40.543Z,1009.38
2023-04-18T09:34:40.147Z,1009.43
2023-04-18T09:35:40.116Z,1009.40
2023-04-18T09:36:40.154Z,1009.36
2023-04-18T09:37:40.089Z,1009.31
2023-04-18T09:38:40.093Z,1009.27
2023-04-18T09:39:40.065Z,1009.23
2023-04-18T09:40:40.086Z,1009.27
2023-04-18T09:41:40.086Z,1009.30
2023-04-18T09:42:40.047Z,1009.34
2023-04-18T09:43:40.064Z,1009.29
2023-04-18T09:44:40.024Z,1009.27
2023-04-18T09:45:40.050Z,1009.23
2023-04-18T09:46:40.078Z,1009.16
2023-04-18T09:47:40.008Z,1009.30
2023-04-18T09:48:40.007Z,1009.12
2023-04-18T09:49:39.956Z,1009.16
2023-04-18T09:50:39.958Z,1009.15
2023-04-18T09:51:39.938Z,1009.09
2023-04-18T09:52:39.957Z,1009.11
2023-04-18T09:53:39.930Z,1009.12
2023-04-18T09:54:39.922Z,1009.17
2023-04-18T09:55:39.908Z,1009.19
2023-04-18T09:56:39.918Z,1009.22
2023-04-18T09:57:39.869Z,1009.14
2023-04-18T09:58:39.875Z,1009.19
2023-04-18T09:59:39.879Z,1009.21
2023-04-18T10:00:39.851Z,1009.12
2023-04-18T10:01:39.969Z,1009.19
2023-04-18T10:02:39.882Z,1009.13
2023-04-18T10:03:39.960Z,1009.15
2023-04-18T10:04:39.950Z,1009.17
2023-04-18T10:05:39.818Z,1009.17
2023-04-18T10:06:39.817Z,1009.13
2023-04-18T10:07:39.757Z,1009.13
2023-04-18T10:08:39.784Z,1009.08
2023-04-18T10:09:39.735Z,1009.09
2023-04-18T10:10:39.741Z,1009.09
2023-04-18T10:11:39.754Z,1009.09
2023-04-18T10:12:39.711Z,1009.19
2023-04-18T10:13:39.691Z,1009.15
2023-04-18T10:14:39.684Z,1009.17
2023-04-18T10:15:40.700Z,1009.21
2023-04-18T10:16:39.738Z,1009.14
2023-04-18T10:17:44.604Z,1009.14
2023-04-18T10:18:40.635Z,1009.16
2023-04-18T10:19:39.645Z,1009.13
2023-04-18T10:20:39.615Z,1009.13
2023-04-18T10:21:39.605Z,1009.09
2023-04-18T10:22:39.629Z,1009.09
2023-04-18T10:23:39.611Z,1009.06
2023-04-18T10:24:39.588Z,1009.08
2023-04-18T10:25:39.581Z,1009.08
2023-04-18T10:26:39.544Z,1009.06
2023-04-18T10:27:39.546Z,1009.10
2023-04-18T10:28:39.565Z,1009.09
2023-04-18T10:29:39.517Z,1009.07
2023-04-18T10:30:39.521Z,1009.05
2023-04-18T10:31:39.545Z,1009.10
2023-04-18T10:32:39.516Z,1009.04
2023-04-18T10:33:41.968Z,1009.04
2023-04-18T10:34:39.502Z,1009.01
2023-04-18T10:35:41.406Z,1009.01
2023-04-18T10:36:39.441Z,1009.00
2023-04-18T10:37:39.424Z,1008.99
2023-04-18T10:38:39.424Z,1008.98
2023-04-18T10:39:39.436Z,1008.98
2023-04-18T10:40:39.405Z,1008.93
2023-04-18T10:41:39.408Z,1008.98
2023-04-18T10:42:39.381Z,1008.98
2023-04-18T10:43:39.383Z,1008.98
2023-04-18T10:44:39.373Z,1008.97
2023-04-18T10:45:39.353Z,1008.99
2023-04-18T10:46:39.351Z,1008.99
2023-04-18T10:47:39.518Z,1008.97
2023-04-18T10:48:39.400Z,1008.95
2023-04-18T10:49:39.332Z,1008.94
2023-04-18T10:50:39.298Z,1008.93
2023-04-18T10:51:39.271Z,1008.97
2023-04-18T10:52:39.280Z,1008.94
2023-04-18T10:53:39.274Z,1008.91
2023-04-18T10:54:39.312Z,1008.93
2023-04-18T10:55:39.238Z,1008.94
2023-04-18T10:56:39.234Z,1008.97
2023-04-18T10:57:39.210Z,1008.94
2023-04-18T10:58:39.205Z,1008.92
2023-04-18T10:59:39.191Z,1008.92
2023-04-18T11:00:39.239Z,1008.89
2023-04-18T11:01:39.197Z,1008.91
2023-04-18T11:02:39.341Z,1008.87
2023-04-18T11:03:39.258Z,1008.92
2023-04-18T11:04:39.139Z,1008.89
2023-04-18T11:05:39.251Z,1008.88
2023-04-18T11:06:39.128Z,1008.86
2023-04-18T11:07:39.117Z,1008.85
2023-04-18T11:08:39.124Z,1008.84
2023-04-18T11:09:39.078Z,1008.79
2023-04-18T11:10:39.069Z,1008.77
2023-04-18T11:11:39.060Z,1008.80
2023-04-18T11:12:39.080Z,1008.75
2023-04-18T11:13:39.056Z,1008.75
2023-04-18T11:14:39.031Z,1008.72
2023-04-18T11:15:39.009Z,1008.73
2023-04-18T11:16:39.024Z,1008.74
2023-04-18T11:17:39.064Z,1008.68
2023-04-18T11:18:39.008Z,1008.73
2023-04-18T11:19:38.962Z,1008.75
2023-04-18T11:20:38.992Z,1008.73
2023-04-18T11:21:38.972Z,1008.67
2023-04-18T11:22:38.949Z,1008.70
2023-04-18T11:23:38.923Z,1008.70
2023-04-18T11:25:58.299Z,1008.72
2023-04-18T11:26:58.204Z,1008.73
2023-04-18T11:27:58.251Z,1008.64
2023-04-18T11:28:58.212Z,1008.70
2023-04-18T11:29:58.184Z,1008.65
2023-04-18T11:30:58.169Z,1008.69
2023-04-18T11:31:58.895Z,1008.68
2023-04-18T11:32:58.266Z,1008.67
2023-04-18T11:33:58.154Z,1008.66
2023-04-18T11:34:58.134Z,1008.67
2023-04-18T11:35:58.121Z,1008.68
2023-04-18T11:36:58.230Z,1008.60
2023-04-18T11:37:58.102Z,1008.61
2023-04-18T11:38:58.100Z,1008.64
2023-04-18T11:39:58.076Z,1008.58
2023-04-18T11:40:58.058Z,1008.62
2023-04-18T11:41:58.053Z,1008.62
2023-04-18T11:42:58.060Z,1008.59
2023-04-18T11:43:58.035Z,1008.61
2023-04-18T11:44:58.017Z,1008.60
2023-04-18T11:45:58.023Z,1008.56
2023-04-18T11:46:57.991Z,1008.59
2023-04-18T11:47:58.074Z,1008.61
2023-04-18T11:48:57.997Z,1008.62
2023-04-18T11:49:57.983Z,1008.65
2023-04-18T11:50:57.946Z,1008.64
2023-04-18T11:51:57.942Z,1008.68
2023-04-18T11:52:57.966Z,1008.63
2023-04-18T11:53:57.923Z,1008.63
2023-04-18T11:54:57.968Z,1008.65
2023-04-18T11:55:57.941Z,1008.67
2023-04-18T11:56:57.910Z,1008.68
2023-04-18T11:57:57.877Z,1008.71
2023-04-18T11:58:57.868Z,1008.70
2023-04-18T11:59:57.884Z,1008.73
2023-04-18T12:00:57.873Z,1008.67
2023-04-18T12:01:58.863Z,1008.70
2023-04-18T12:02:57.884Z,1008.68
2023-04-18T12:03:57.980Z,1008.68
2023-04-18T12:04:58.213Z,1008.63
2023-04-18T12:05:57.945Z,1008.67
2023-04-18T12:06:57.807Z,1008.71